Time;durP1;ratioP1;P1;durP2;ratioP2;P2;SDS_P1;SDS_P2;PMS_P1;PMS_P2;Temp;Humidity;BMP_temperature;BMP_pressure;BME280_temperature;BME280_humidity;BME280_pressure;Samples;Min_cycle;Max_cycle;Signal;HPM_P1;HPM_P2
2023/10/05 18:37:28;;;;;;;25.85;11.82;;;16.40;99.90;;;;;;5090486;27;20386;-78
2023/10/05 18:39:55;;;;;;;20.00;9.23;;;16.20;99.90;;;;;;5090869;28;20475;-79
2023/10/05 18:42:21;;;;;;;26.58;9.55;;;16.20;99.90;;;;;;5091283;28;20440;-79
2023/10/05 18:44:47;;;;;;;25.33;9.77;;;16.20;99.90;;;;;;5083851;28;20070;-79
2023/10/05 18:47:13;;;;;;;25.48;9.90;;;16.20;99.90;;;;;;5069990;28;20107;-80
2023/10/05 18:49:39;;;;;;;26.52;9.07;;;16.20;99.90;;;;;;5066973;28;20104;-78
2023/10/05 18:52:07;;;;;;;26.30;8.48;;;16.20;99.90;;;;;;5069493;28;20459;-78
2023/10/05 18:54:33;;;;;;;30.33;9.38;;;16.30;99.90;;;;;;5070311;28;20095;-77
2023/10/05 18:56:59;;;;;;;20.83;8.07;;;16.30;99.90;;;;;;5069120;28;20112;-77
2023/10/05 18:59:26;;;;;;;26.65;8.32;;;16.30;99.90;;;;;;5067730;28;20119;-78
2023/10/05 19:01:52;;;;;;;25.65;8.73;;;16.30;99.90;;;;;;5069016;28;20013;-78
2023/10/05 19:04:20;;;;;;;29.95;8.38;;;16.30;99.90;;;;;;5070236;28;20375;-78
2023/10/05 19:06:47;;;;;;;19.88;7.90;;;16.30;99.90;;;;;;5068812;28;20028;-78
2023/10/05 19:09:13;;;;;;;23.40;8.85;;;16.40;99.90;;;;;;5068678;28;20455;-78
2023/10/05 19:11:39;;;;;;;23.15;9.23;;;16.30;99.90;;;;;;5068431;28;20029;-76
2023/10/05 19:14:06;;;;;;;23.77;8.20;;;16.30;99.90;;;;;;5084360;28;20363;-76
2023/10/05 19:16:33;;;;;;;17.13;8.40;;;16.40;99.90;;;;;;5070340;28;20043;-77
2023/10/05 19:18:59;;;;;;;26.05;7.80;;;16.30;99.90;;;;;;5083855;28;20455;-77
2023/10/05 19:21:25;;;;;;;19.38;8.20;;;16.30;99.90;;;;;;5068562;28;20040;-77
2023/10/05 19:23:51;;;;;;;18.73;7.82;;;16.30;99.90;;;;;;5069288;28;20468;-78
2023/10/05 19:26:16;;;;;;;21.42;8.00;;;16.20;99.90;;;;;;5068167;28;20130;-77
2023/10/05 19:28:42;;;;;;;16.98;8.82;;;16.20;99.90;;;;;;5063539;28;20082;-77
2023/10/05 19:31:19;;;;;;;25.48;9.60;;;16.10;99.90;;;;;;5050380;28;20033;-78
2023/10/05 19:33:46;;;;;;;20.13;7.63;;;16.10;99.90;;;;;;5065344;28;20025;-79
2023/10/05 19:36:12;;;;;;;23.02;8.20;;;16.10;99.90;;;;;;5065105;28;20415;-77
2023/10/05 19:38:38;;;;;;;28.33;8.15;;;16.10;99.90;;;;;;5065170;28;20082;-77
2023/10/05 19:41:05;;;;;;;25.67;9.02;;;16.10;99.90;;;;;;5065031;28;20514;-77
2023/10/05 19:43:33;;;;;;;20.50;8.70;;;16.00;99.90;;;;;;5065537;28;20025;-79
2023/10/05 19:46:01;;;;;;;21.20;8.35;;;16.00;99.90;;;;;;5067120;28;20080;-79
2023/10/05 19:48:27;;;;;;;22.55;7.97;;;16.00;99.90;;;;;;5055248;28;20021;-79
2023/10/05 19:50:53;;;;;;;36.85;9.77;;;15.90;99.90;;;;;;5059090;28;20032;-78
2023/10/05 19:53:21;;;;;;;21.90;8.93;;;15.90;99.90;;;;;;5053020;28;20438;-78
2023/10/05 19:55:55;;;;;;;20.08;9.23;;;15.80;99.90;;;;;;5055854;28;20479;-78
2023/10/05 19:58:21;;;;;;;20.92;8.40;;;15.70;99.90;;;;;;5057033;28;20031;-79
2023/10/05 20:00:47;;;;;;;21.63;9.23;;;15.70;99.90;;;;;;5066972;28;20044;-78
2023/10/05 20:03:13;;;;;;;34.05;9.02;;;15.70;99.90;;;;;;5058503;28;20095;-78
2023/10/05 20:05:38;;;;;;;24.77;8.80;;;15.60;99.90;;;;;;5053812;28;20476;-78
2023/10/05 20:08:05;;;;;;;20.65;8.25;;;15.50;99.90;;;;;;5066426;28;20032;-79
2023/10/05 20:10:34;;;;;;;25.15;8.50;;;15.50;99.90;;;;;;5074260;28;20029;-77
2023/10/05 20:13:05;;;;;;;26.23;8.65;;;15.50;99.90;;;;;;5061733;28;20021;-79
2023/10/05 20:15:41;;;;;;;29.75;8.60;;;15.40;99.90;;;;;;5058258;28;20371;-79
2023/10/05 20:18:10;;;;;;;21.45;9.10;;;15.40;99.90;;;;;;5058234;28;20512;-79
2023/10/05 20:20:36;;;;;;;31.80;8.38;;;15.40;99.90;;;;;;5055674;28;20028;-79
2023/10/05 20:23:04;;;;;;;21.83;9.60;;;15.40;99.90;;;;;;5065592;28;20025;-79
2023/10/05 20:25:30;;;;;;;25.80;8.90;;;15.40;99.90;;;;;;5071878;28;20115;-78
2023/10/05 20:27:56;;;;;;;24.10;8.55;;;15.40;99.90;;;;;;5066627;28;20025;-79
2023/10/05 20:30:22;;;;;;;25.30;8.60;;;15.30;99.90;;;;;;5065351;28;20032;-78
2023/10/05 20:32:48;;;;;;;16.45;8.65;;;15.30;99.90;;;;;;5061440;28;20359;-78
2023/10/05 20:35:14;;;;;;;23.55;9.15;;;15.30;99.90;;;;;;5074836;28;20024;-78
2023/10/05 20:37:41;;;;;;;27.02;8.35;;;15.20;99.90;;;;;;5075500;28;20114;-77
2023/10/05 20:40:08;;;;;;;22.98;8.70;;;15.20;99.90;;;;;;5075476;28;20024;-78
2023/10/05 20:42:34;;;;;;;21.98;8.43;;;15.20;99.90;;;;;;5074726;28;20048;-80
2023/10/05 20:45:01;;;;;;;16.65;9.45;;;15.20;99.90;;;;;;5075353;28;20125;-79
2023/10/05 20:47:31;;;;;;;21.90;8.32;;;15.10;99.90;;;;;;5075277;28;20024;-78
2023/10/05 20:49:57;;;;;;;24.67;9.15;;;15.10;99.90;;;;;;5073481;28;20455;-78
2023/10/05 20:52:24;;;;;;;18.13;8.00;;;15.10;99.90;;;;;;5075083;28;20050;-78
2023/10/05 20:54:53;;;;;;;22.15;8.27;;;15.10;99.90;;;;;;5075168;28;20025;-78
2023/10/05 20:57:19;;;;;;;17.15;8.48;;;15.10;99.90;;;;;;5070627;28;20509;-78
2023/10/05 20:59:49;;;;;;;19.45;8.70;;;15.00;99.90;;;;;;5074169;28;20063;-78
2023/10/05 21:02:15;;;;;;;21.40;7.43;;;15.00;99.90;;;;;;5070680;28;20109;-78
2023/10/05 21:04:41;;;;;;;16.00;7.60;;;14.90;99.90;;;;;;5054664;28;20122;-78
2023/10/05 21:07:07;;;;;;;16.92;7.28;;;14.90;99.90;;;;;;5066249;28;20036;-78
2023/10/05 21:09:33;;;;;;;32.42;7.00;;;14.90;99.90;;;;;;5064706;28;20024;-79
2023/10/05 21:12:00;;;;;;;10.48;7.55;;;14.80;99.90;;;;;;5074249;28;20390;-78
2023/10/05 21:14:25;;;;;;;21.42;6.97;;;14.80;99.90;;;;;;5063363;28;20116;-78
2023/10/05 21:16:51;;;;;;;16.90;7.05;;;14.80;99.90;;;;;;5055479;28;20103;-78
2023/10/05 21:19:17;;;;;;;17.80;8.18;;;14.70;99.90;;;;;;5074167;28;20035;-78
2023/10/05 21:21:44;;;;;;;24.23;7.20;;;14.70;99.90;;;;;;5056509;28;20029;-78
2023/10/05 21:24:10;;;;;;;13.15;6.97;;;14.70;99.90;;;;;;5067748;28;20020;-78
2023/10/05 21:26:40;;;;;;;14.82;7.47;;;14.70;99.90;;;;;;5074181;28;20459;-79
2023/10/05 21:29:07;;;;;;;16.98;6.03;;;14.70;99.90;;;;;;5074504;28;20027;-78
2023/10/05 21:31:33;;;;;;;17.15;6.38;;;14.70;99.90;;;;;;5074297;28;20466;-79
2023/10/05 21:34:03;;;;;;;17.02;6.53;;;14.70;99.90;;;;;;5065152;28;20028;-78
2023/10/05 21:36:30;;;;;;;19.05;6.80;;;14.70;99.90;;;;;;5074004;28;20059;-78
2023/10/05 21:38:56;;;;;;;15.05;6.63;;;14.70;99.90;;;;;;5064891;28;20021;-79
2023/10/05 21:41:21;;;;;;;16.65;7.75;;;14.70;99.90;;;;;;5063381;28;20471;-79
2023/10/05 21:43:48;;;;;;;17.13;6.97;;;14.70;99.90;;;;;;5058097;28;20029;-79
2023/10/05 21:46:15;;;;;;;20.52;6.70;;;14.70;99.90;;;;;;5052816;28;20058;-79
2023/10/05 21:48:42;;;;;;;18.10;7.60;;;14.70;99.90;;;;;;5059988;28;20432;-79
2023/10/05 21:51:08;;;;;;;17.65;6.57;;;14.70;99.90;;;;;;5058964;28;20028;-78
2023/10/05 21:53:35;;;;;;;19.58;7.30;;;14.70;99.90;;;;;;5052475;28;20100;-79
2023/10/05 21:56:01;;;;;;;17.70;6.90;;;14.70;99.90;;;;;;5049764;28;20032;-80
2023/10/05 21:58:27;;;;;;;19.38;7.47;;;14.70;99.90;;;;;;5051829;28;20028;-80
2023/10/05 22:00:53;;;;;;;18.50;7.50;;;14.70;99.90;;;;;;5051200;28;20024;-80
2023/10/05 22:03:21;;;;;;;16.70;7.28;;;14.70;99.90;;;;;;5066970;28;20052;-78
2023/10/05 22:05:48;;;;;;;17.63;7.10;;;14.70;99.90;;;;;;5062274;28;20028;-78
2023/10/05 22:08:15;;;;;;;21.27;7.60;;;14.70;99.90;;;;;;5061926;28;20421;-79
2023/10/05 22:10:43;;;;;;;16.10;7.07;;;14.70;99.90;;;;;;5072894;28;20107;-78
2023/10/05 22:13:10;;;;;;;18.98;7.05;;;14.60;99.90;;;;;;5073658;28;20028;-78
2023/10/05 22:15:36;;;;;;;14.30;7.75;;;14.60;99.90;;;;;;5056508;28;20430;-78
2023/10/05 22:18:04;;;;;;;17.65;8.32;;;14.60;99.90;;;;;;5061630;28;20075;-79
2023/10/05 22:20:30;;;;;;;17.85;7.18;;;14.60;99.90;;;;;;5070511;28;20394;-79
2023/10/05 22:22:56;;;;;;;14.82;8.18;;;14.50;99.90;;;;;;5073286;28;20058;-79
2023/10/05 22:25:25;;;;;;;24.30;7.78;;;14.50;99.90;;;;;;5073256;28;20455;-79
2023/10/05 22:27:51;;;;;;;19.52;7.40;;;14.50;99.90;;;;;;5073578;28;20451;-79
2023/10/05 22:30:19;;;;;;;17.67;9.20;;;14.50;99.90;;;;;;5073513;28;20066;-79
2023/10/05 22:32:45;;;;;;;18.73;8.30;;;14.50;99.90;;;;;;5072471;28;20371;-78
2023/10/05 22:35:11;;;;;;;22.25;7.88;;;14.50;99.90;;;;;;5073063;28;20095;-79
2023/10/05 22:37:37;;;;;;;20.63;8.20;;;14.50;99.90;;;;;;5072539;28;20142;-79
2023/10/05 22:40:04;;;;;;;20.90;8.48;;;14.50;99.90;;;;;;5060633;28;20130;-79
2023/10/05 22:42:29;;;;;;;15.50;7.25;;;14.50;99.90;;;;;;5066130;28;20025;-79
2023/10/05 22:44:55;;;;;;;17.90;6.90;;;14.40;99.90;;;;;;5070773;28;20031;-79
2023/10/05 22:47:21;;;;;;;17.50;6.47;;;14.40;99.90;;;;;;5061274;28;20558;-78
2023/10/05 22:49:47;;;;;;;14.10;6.18;;;14.40;99.90;;;;;;5073408;28;20028;-78
2023/10/05 22:52:13;;;;;;;17.80;7.80;;;14.30;99.90;;;;;;5058587;28;20009;-79
2023/10/05 22:54:38;;;;;;;17.25;7.82;;;14.30;99.90;;;;;;5060408;28;20455;-78
2023/10/05 22:57:04;;;;;;;12.80;7.45;;;14.30;99.90;;;;;;5069476;28;20033;-79
2023/10/05 22:59:30;;;;;;;14.88;7.03;;;14.30;99.90;;;;;;5053658;28;20473;-78
2023/10/05 23:01:56;;;;;;;15.07;6.25;;;14.30;99.90;;;;;;5053877;28;20031;-79
2023/10/05 23:04:21;;;;;;;17.35;7.85;;;14.30;99.90;;;;;;5061537;28;20056;-79
2023/10/05 23:06:47;;;;;;;16.40;9.85;;;14.20;99.90;;;;;;5073477;28;20421;-78
2023/10/05 23:09:13;;;;;;;14.30;7.97;;;14.20;99.90;;;;;;5073421;28;20021;-79
2023/10/05 23:11:40;;;;;;;18.75;7.07;;;14.20;99.90;;;;;;5072032;28;20457;-79
2023/10/05 23:14:09;;;;;;;17.40;7.15;;;14.20;99.90;;;;;;5073100;28;20348;-79
2023/10/05 23:16:35;;;;;;;17.45;6.32;;;14.10;99.90;;;;;;5072927;28;20112;-79
2023/10/05 23:19:09;;;;;;;15.90;8.50;;;14.20;99.90;;;;;;5059362;28;20100;-78
2023/10/05 23:21:40;;;;;;;16.52;6.22;;;14.20;99.90;;;;;;5066442;28;20094;-79
2023/10/05 23:24:07;;;;;;;16.50;8.07;;;14.20;99.90;;;;;;5076444;28;20500;-78
2023/10/05 23:26:33;;;;;;;17.90;9.02;;;14.30;99.90;;;;;;5076667;28;20024;-78
2023/10/05 23:29:03;;;;;;;15.15;8.25;;;14.30;99.90;;;;;;5076671;28;20097;-78
2023/10/05 23:31:32;;;;;;;15.98;7.07;;;14.30;99.90;;;;;;5076656;28;20024;-78
2023/10/05 23:33:57;;;;;;;19.77;6.90;;;14.40;99.90;;;;;;5076692;28;20051;-78
2023/10/05 23:36:23;;;;;;;12.43;6.28;;;14.40;99.90;;;;;;5074950;28;20467;-79
2023/10/05 23:38:49;;;;;;;19.73;7.53;;;14.40;99.90;;;;;;5076488;28;20040;-79
2023/10/05 23:41:15;;;;;;;17.23;6.97;;;14.40;99.90;;;;;;5077068;28;20030;-78
2023/10/05 23:43:43;;;;;;;16.05;7.35;;;14.40;99.90;;;;;;5076580;28;20048;-78
2023/10/05 23:46:14;;;;;;;18.40;8.80;;;14.50;99.90;;;;;;5076120;28;20033;-78
2023/10/05 23:48:40;;;;;;;24.30;8.60;;;14.50;99.90;;;;;;5073823;28;20024;-78
2023/10/05 23:51:07;;;;;;;23.40;7.40;;;14.50;99.90;;;;;;5057787;28;20056;-78
2023/10/05 23:53:36;;;;;;;27.08;12.93;;;14.50;99.90;;;;;;5056018;28;20374;-78
2023/10/05 23:56:09;;;;;;;17.95;7.05;;;14.50;99.90;;;;;;5055725;28;20029;-78
2023/10/05 23:58:35;;;;;;;16.75;6.50;;;14.50;99.90;;;;;;5060398;28;20061;-78
